Time;durP1;ratioP1;P1;durP2;ratioP2;P2;SDS_P1;SDS_P2;PMS_P1;PMS_P2;Temp;Humidity;BMP_temperature;BMP_pressure;BME280_temperature;BME280_humidity;BME280_pressure;Samples;Min_cycle;Max_cycle;Signal;HPM_P1;HPM_P2
2021/10/09 00:01:50;;;;;;;3.77;2.80;;;13.80;99.90;;;;;;5015335;28;20198;-89
2021/10/09 00:04:22;;;;;;;4.63;2.70;;;13.70;99.90;;;;;;4997618;28;20244;-90
2021/10/09 00:06:53;;;;;;;4.43;2.60;;;13.70;99.90;;;;;;4994667;28;20219;-87
2021/10/09 00:09:27;;;;;;;3.27;2.57;;;13.60;99.90;;;;;;5005435;28;20230;-93
2021/10/09 00:12:01;;;;;;;4.13;2.60;;;13.70;99.90;;;;;;5003906;28;20207;-89
2021/10/09 00:14:35;;;;;;;3.90;3.07;;;13.60;99.90;;;;;;4998110;28;20261;-90
2021/10/09 00:17:08;;;;;;;3.60;2.83;;;13.70;99.90;;;;;;5004030;28;20670;-88
2021/10/09 00:19:41;;;;;;;3.23;2.50;;;13.60;99.90;;;;;;4999080;28;20199;-89
2021/10/09 00:22:12;;;;;;;2.70;2.50;;;13.50;99.90;;;;;;5068729;23;20252;-90
2021/10/09 00:24:43;;;;;;;3.43;2.47;;;13.50;99.90;;;;;;5005318;28;20309;-92
2021/10/09 00:27:15;;;;;;;3.47;2.50;;;13.40;99.90;;;;;;5022921;28;20218;-93
2021/10/09 00:32:43;;;;;;;3.60;2.33;;;13.10;99.90;;;;;;5182497;22;20277;-91
2021/10/09 00:35:19;;;;;;;2.27;2.07;;;13.00;99.90;;;;;;5582361;23;20246;-92
2021/10/09 00:38:00;;;;;;;3.10;2.27;;;12.80;99.90;;;;;;5024557;28;20661;-91
2021/10/09 00:43:21;;;;;;;4.70;2.90;;;12.60;99.90;;;;;;5011584;28;20218;-88
2021/10/09 00:45:55;;;;;;;1.97;1.80;;;12.60;99.90;;;;;;5002745;28;20213;-89
2021/10/09 00:48:30;;;;;;;3.07;2.43;;;12.50;99.90;;;;;;5001670;28;20224;-90
2021/10/09 00:51:02;;;;;;;2.23;1.93;;;12.40;99.90;;;;;;5000039;28;20209;-85
2021/10/09 00:53:35;;;;;;;3.67;2.10;;;12.30;99.90;;;;;;5038837;23;20277;-89
2021/10/09 00:56:07;;;;;;;2.40;2.00;;;12.20;99.90;;;;;;5019589;28;20248;-89
2021/10/09 00:58:41;;;;;;;2.70;1.70;;;12.10;99.90;;;;;;5023110;28;20198;-89
2021/10/09 01:01:14;;;;;;;4.20;2.10;;;12.10;99.90;;;;;;5047923;22;20252;-89
2021/10/09 01:03:50;;;;;;;2.87;2.40;;;12.00;99.90;;;;;;5040807;28;20577;-91
2021/10/09 01:06:23;;;;;;;4.47;2.47;;;12.00;99.90;;;;;;5052038;28;20224;-90
2021/10/09 01:08:55;;;;;;;3.90;2.00;;;11.80;99.90;;;;;;5040593;28;20276;-88
2021/10/09 01:11:27;;;;;;;2.67;2.30;;;11.70;99.90;;;;;;5011459;28;20209;-88
2021/10/09 01:14:00;;;;;;;2.70;1.93;;;11.70;99.90;;;;;;4994636;28;20697;-88
2021/10/09 01:16:33;;;;;;;3.70;2.03;;;11.60;99.90;;;;;;4992344;28;20211;-87
2021/10/09 01:24:28;;;;;;;2.07;1.80;;;11.40;99.90;;;;;;5049916;28;20213;-88
2021/10/09 01:27:00;;;;;;;6.27;2.10;;;11.30;99.90;;;;;;5037001;28;20213;-88
2021/10/09 01:29:32;;;;;;;3.27;2.50;;;11.20;99.90;;;;;;5055217;28;20197;-89
2021/10/09 01:32:05;;;;;;;8.80;3.83;;;11.20;99.90;;;;;;5057129;28;20219;-88
2021/10/09 01:34:37;;;;;;;5.00;3.83;;;11.10;99.90;;;;;;5055915;28;20237;-90
2021/10/09 01:37:10;;;;;;;5.13;3.03;;;11.00;99.90;;;;;;5052359;28;20212;-91
2021/10/09 01:39:48;;;;;;;4.37;3.17;;;10.90;99.90;;;;;;4695684;28;10001391;-90
2021/10/09 01:42:22;;;;;;;6.20;4.10;;;10.80;99.90;;;;;;5046837;28;20209;-89
2021/10/09 01:44:54;;;;;;;6.97;5.00;;;10.80;99.90;;;;;;5462492;23;20241;-92
2021/10/09 01:47:33;;;;;;;6.47;5.00;;;10.70;99.90;;;;;;5032746;28;20214;-92
2021/10/09 01:50:05;;;;;;;9.73;6.20;;;10.70;99.90;;;;;;5032653;28;20217;-88
2021/10/09 01:52:36;;;;;;;7.27;4.90;;;10.60;99.90;;;;;;5024759;28;20198;-89
2021/10/09 01:55:11;;;;;;;9.07;5.37;;;10.60;99.90;;;;;;5030880;28;20264;-89
2021/10/09 01:57:42;;;;;;;13.63;7.23;;;10.40;99.90;;;;;;5015787;28;20202;-88
2021/10/09 02:00:14;;;;;;;9.03;6.07;;;10.40;99.90;;;;;;5026534;28;20244;-87
2021/10/09 02:02:45;;;;;;;8.97;5.63;;;10.40;99.90;;;;;;5034732;28;20208;-86
2021/10/09 02:05:19;;;;;;;8.50;4.97;;;10.30;99.90;;;;;;5024824;28;20229;-88
2021/10/09 02:07:50;;;;;;;7.63;4.13;;;10.20;99.90;;;;;;5030651;28;20205;-88
2021/10/09 02:10:26;;;;;;;7.13;4.37;;;10.10;99.90;;;;;;5028972;28;20269;-87
2021/10/09 02:13:03;;;;;;;7.60;4.20;;;10.00;99.90;;;;;;5023549;28;20209;-88
2021/10/09 02:15:41;;;;;;;9.37;5.00;;;10.00;99.90;;;;;;5029641;28;20244;-86
2021/10/09 02:18:29;;;;;;;7.13;5.30;;;9.90;99.90;;;;;;5019690;28;20209;-88
2021/10/09 02:24:20;;;;;;;14.43;8.90;;;9.90;99.90;;;;;;5142843;23;20244;-91
2021/10/09 02:26:56;;;;;;;17.63;10.40;;;9.90;99.90;;;;;;5072924;28;20196;-89
2021/10/09 02:29:28;;;;;;;16.30;10.00;;;9.80;99.90;;;;;;5069431;28;20197;-90
2021/10/09 02:32:01;;;;;;;13.70;9.23;;;9.70;99.90;;;;;;5061047;28;20274;-90
2021/10/09 02:34:32;;;;;;;11.53;8.03;;;9.60;99.90;;;;;;5051733;28;20273;-92
2021/10/09 02:37:04;;;;;;;11.23;7.20;;;9.60;99.90;;;;;;5070617;28;20192;-90
2021/10/09 02:39:37;;;;;;;8.40;5.50;;;9.50;99.90;;;;;;5073198;28;20205;-90
2021/10/09 02:42:12;;;;;;;9.47;5.40;;;9.50;99.90;;;;;;5071158;28;20204;-89
2021/10/09 02:47:19;;;;;;;9.23;6.50;;;9.40;99.90;;;;;;5078950;22;20229;-86
2021/10/09 02:49:50;;;;;;;12.87;8.33;;;9.30;99.90;;;;;;5033788;28;20220;-88
2021/10/09 02:52:22;;;;;;;13.77;9.00;;;9.30;99.90;;;;;;5029462;28;20216;-87
2021/10/09 02:54:54;;;;;;;13.13;10.93;;;9.30;99.90;;;;;;5028858;28;20228;-87
2021/10/09 02:57:28;;;;;;;14.70;11.37;;;9.20;99.90;;;;;;5034448;28;20275;-89
2021/10/09 03:02:54;;;;;;;13.43;9.10;;;9.10;99.90;;;;;;5029091;28;20239;-85
2021/10/09 03:05:28;;;;;;;13.50;8.10;;;9.00;99.90;;;;;;5033140;28;20206;-87
2021/10/09 03:08:00;;;;;;;10.50;6.83;;;9.00;99.90;;;;;;5025367;28;20222;-85
2021/10/09 03:10:33;;;;;;;11.50;6.63;;;8.90;99.90;;;;;;4980544;28;20209;-87
2021/10/09 03:13:10;;;;;;;8.27;6.53;;;8.90;99.90;;;;;;4997897;28;20245;-86
2021/10/09 03:21:03;;;;;;;10.43;7.50;;;8.80;99.90;;;;;;5037766;28;20225;-87
2021/10/09 03:23:36;;;;;;;10.93;7.93;;;8.90;99.90;;;;;;5044365;28;20220;-90
2021/10/09 03:26:13;;;;;;;11.23;7.80;;;8.80;99.90;;;;;;5052514;28;20181;-91
2021/10/09 03:28:52;;;;;;;9.43;7.17;;;8.80;99.90;;;;;;5038724;28;20204;-87
2021/10/09 03:31:23;;;;;;;11.10;6.97;;;8.80;99.90;;;;;;5031800;28;20215;-86
2021/10/09 03:33:55;;;;;;;11.83;6.57;;;8.70;99.90;;;;;;5040047;28;20239;-87
2021/10/09 03:36:27;;;;;;;9.13;5.37;;;8.70;99.90;;;;;;5044992;28;20232;-86
2021/10/09 03:38:58;;;;;;;7.70;5.80;;;8.70;99.90;;;;;;5051135;28;20205;-87
2021/10/09 03:41:29;;;;;;;7.87;5.60;;;8.60;99.90;;;;;;5038359;28;20206;-87
2021/10/09 03:44:03;;;;;;;6.53;4.83;;;8.60;99.90;;;;;;5036134;28;20209;-86
2021/10/09 03:46:41;;;;;;;7.60;4.27;;;8.60;99.90;;;;;;5052255;28;20190;-87
2021/10/09 03:49:23;;;;;;;6.77;4.30;;;8.50;99.90;;;;;;5054566;28;20272;-86
2021/10/09 03:54:42;;;;;;;7.47;5.00;;;8.40;99.90;;;;;;5036224;28;20237;-87
2021/10/09 03:57:14;;;;;;;10.80;5.33;;;8.40;99.90;;;;;;5030898;28;20213;-86
2021/10/09 03:59:48;;;;;;;11.57;7.23;;;8.40;99.90;;;;;;5032789;28;20286;-86
2021/10/09 04:02:20;;;;;;;14.83;9.63;;;8.30;99.90;;;;;;5025165;28;20220;-85
2021/10/09 04:04:52;;;;;;;10.90;8.37;;;8.40;99.90;;;;;;5045076;28;20210;-84
2021/10/09 04:07:24;;;;;;;11.60;8.27;;;8.40;99.90;;;;;;5045068;28;20265;-86
2021/10/09 04:09:56;;;;;;;10.67;7.83;;;8.40;99.90;;;;;;5202976;23;20228;-86
2021/10/09 04:12:29;;;;;;;11.70;7.97;;;8.30;99.90;;;;;;5043523;28;20255;-85
2021/10/09 04:15:05;;;;;;;9.33;7.13;;;8.30;99.90;;;;;;5047277;28;20220;-86
2021/10/09 04:17:37;;;;;;;13.53;9.90;;;8.30;99.90;;;;;;5052611;28;20212;-86
2021/10/09 04:20:11;;;;;;;15.10;12.13;;;8.30;99.90;;;;;;5049068;28;20217;-86
2021/10/09 04:22:43;;;;;;;17.57;12.83;;;8.30;99.90;;;;;;5041805;28;20205;-87
2021/10/09 04:25:14;;;;;;;13.60;10.63;;;8.30;99.90;;;;;;5038872;28;20212;-86
2021/10/09 04:27:45;;;;;;;11.10;9.20;;;8.30;99.90;;;;;;5039307;28;20232;-86
2021/10/09 04:30:20;;;;;;;11.00;8.37;;;8.30;99.90;;;;;;5042102;28;20193;-87
2021/10/09 04:32:52;;;;;;;12.77;7.40;;;8.30;99.90;;;;;;5021203;28;20224;-87
2021/10/09 04:35:24;;;;;;;11.10;6.33;;;8.20;99.90;;;;;;5054945;23;20355;-87
2021/10/09 04:37:55;;;;;;;8.83;6.17;;;8.20;99.90;;;;;;5020696;28;20264;-87
2021/10/09 04:40:28;;;;;;;7.63;5.70;;;8.10;99.90;;;;;;5024240;28;20198;-87
2021/10/09 04:43:01;;;;;;;7.67;5.33;;;8.10;99.90;;;;;;5035025;28;20204;-87
2021/10/09 04:45:35;;;;;;;6.53;4.60;;;8.10;99.90;;;;;;5039900;28;20621;-88
2021/10/09 04:48:07;;;;;;;8.80;4.80;;;8.00;99.90;;;;;;5039837;28;20228;-87
2021/10/09 04:50:40;;;;;;;7.27;4.73;;;8.10;99.90;;;;;;5019278;28;20233;-85
2021/10/09 04:53:13;;;;;;;7.10;4.77;;;8.00;99.90;;;;;;5022245;28;20283;-86
2021/10/09 04:55:44;;;;;;;5.33;4.40;;;8.00;99.90;;;;;;5020757;28;20693;-86
2021/10/09 04:58:16;;;;;;;8.30;5.53;;;8.00;99.90;;;;;;5021226;28;20244;-87
2021/10/09 05:00:51;;;;;;;9.77;5.10;;;8.00;99.90;;;;;;5020341;28;20239;-86
2021/10/09 05:03:23;;;;;;;7.07;5.20;;;7.90;99.90;;;;;;5021662;28;20232;-86
2021/10/09 05:05:54;;;;;;;8.77;5.10;;;7.90;99.90;;;;;;5026136;28;20255;-86
2021/10/09 05:08:25;;;;;;;6.77;4.83;;;7.90;99.90;;;;;;5003084;28;20205;-87
2021/10/09 05:10:58;;;;;;;5.93;4.80;;;7.90;99.90;;;;;;4999393;28;20257;-85
2021/10/09 05:13:30;;;;;;;8.50;4.80;;;7.90;99.90;;;;;;4999401;28;20206;-85
2021/10/09 05:16:03;;;;;;;7.10;5.10;;;7.80;99.90;;;;;;4997780;28;20234;-85
2021/10/09 05:18:35;;;;;;;6.27;4.50;;;7.80;99.90;;;;;;4998050;28;20213;-85
2021/10/09 05:21:08;;;;;;;6.20;5.00;;;7.80;99.90;;;;;;5000998;28;20283;-85
2021/10/09 05:23:39;;;;;;;6.57;5.33;;;7.70;99.90;;;;;;4996309;28;20274;-86
2021/10/09 05:26:11;;;;;;;6.30;4.83;;;7.70;99.90;;;;;;4999076;28;20213;-85
2021/10/09 05:28:45;;;;;;;8.37;4.87;;;7.70;99.90;;;;;;5020205;28;20624;-85
2021/10/09 05:31:25;;;;;;;6.73;4.30;;;7.70;99.90;;;;;;5019561;28;20216;-86
2021/10/09 05:33:56;;;;;;;6.27;3.87;;;7.60;99.90;;;;;;5019554;28;20252;-86
2021/10/09 05:36:28;;;;;;;4.73;4.20;;;7.60;99.90;;;;;;5018790;28;20585;-86
2021/10/09 05:38:59;;;;;;;7.87;4.00;;;7.60;99.90;;;;;;4988324;28;20301;-86
2021/10/09 05:41:30;;;;;;;8.00;4.33;;;7.60;99.90;;;;;;4980977;28;20217;-85
2021/10/09 05:44:02;;;;;;;7.27;4.60;;;7.50;99.90;;;;;;5009928;23;20555;-85
2021/10/09 05:46:35;;;;;;;7.03;4.10;;;7.50;99.90;;;;;;4987127;28;20278;-86
2021/10/09 05:49:06;;;;;;;6.70;4.27;;;7.50;99.90;;;;;;5018523;28;20216;-86
2021/10/09 05:51:39;;;;;;;6.20;3.93;;;7.50;99.90;;;;;;5018123;28;20233;-85
2021/10/09 05:54:21;;;;;;;5.93;4.30;;;7.50;99.90;;;;;;5019015;28;20315;-86
2021/10/09 05:57:00;;;;;;;6.90;4.30;;;7.40;99.90;;;;;;5017762;28;20243;-86
2021/10/09 06:45:19;;;;;;;5.87;4.13;;;7.20;99.90;;;;;;4976589;28;20218;-89
2021/10/09 06:47:52;;;;;;;6.50;3.97;;;7.20;99.90;;;;;;4993840;28;20213;-86
2021/10/09 07:01:48;;;;;;;4.57;3.77;;;7.00;99.90;;;;;;5001603;28;20226;-85
2021/10/09 07:04:20;;;;;;;5.47;4.33;;;7.00;99.90;;;;;;5004873;28;20211;-86
2021/10/09 07:06:54;;;;;;;6.07;4.03;;;7.00;99.90;;;;;;5002601;28;20245;-86
2021/10/09 07:09:29;;;;;;;5.27;4.07;;;7.00;99.90;;;;;;5012153;28;20207;-87
2021/10/09 07:12:00;;;;;;;5.93;4.77;;;7.00;99.90;;;;;;5005407;28;20212;-86
2021/10/09 07:14:32;;;;;;;5.27;4.00;;;6.90;99.90;;;;;;4996231;28;20277;-86
2021/10/09 07:17:03;;;;;;;5.70;4.33;;;6.90;99.90;;;;;;4996448;28;20241;-86
2021/10/09 07:19:35;;;;;;;5.20;4.70;;;6.90;99.90;;;;;;4997032;28;20216;-85
2021/10/09 07:22:07;;;;;;;4.40;4.00;;;6.80;99.90;;;;;;4996692;28;20216;-86
2021/10/09 07:25:01;;;;;;;4.67;4.00;;;6.80;99.90;;;;;;4997754;28;20300;-86
2021/10/09 07:27:32;;;;;;;4.37;3.67;;;6.70;99.90;;;;;;5001298;28;20210;-87
2021/10/09 07:30:04;;;;;;;8.13;4.33;;;6.70;99.90;;;;;;5000860;28;20228;-87
2021/10/09 07:32:36;;;;;;;7.33;4.10;;;6.60;99.90;;;;;;5001040;28;20245;-86
2021/10/09 07:35:09;;;;;;;8.43;3.97;;;6.60;99.90;;;;;;5000057;28;20271;-86
2021/10/09 07:37:40;;;;;;;5.07;3.90;;;6.60;99.90;;;;;;5001033;28;20271;-87
2021/10/09 07:40:18;;;;;;;7.50;3.60;;;6.60;99.90;;;;;;5004605;28;20699;-87
2021/10/09 07:42:49;;;;;;;4.53;3.53;;;6.50;99.90;;;;;;5004659;28;20212;-87
2021/10/09 07:45:20;;;;;;;4.63;3.30;;;6.50;99.90;;;;;;5000486;28;20284;-87
2021/10/09 07:47:52;;;;;;;4.20;2.87;;;6.40;99.90;;;;;;5000885;28;20584;-87
2021/10/09 07:50:26;;;;;;;6.23;3.70;;;6.40;99.90;;;;;;4993795;28;20207;-86
2021/10/09 07:52:57;;;;;;;5.43;3.20;;;6.40;99.90;;;;;;4989577;28;20202;-86
2021/10/09 07:55:31;;;;;;;4.67;3.67;;;6.30;99.90;;;;;;4981640;28;20242;-85
2021/10/09 07:58:03;;;;;;;5.33;3.23;;;6.30;99.90;;;;;;4991900;28;20232;-85
2021/10/09 08:00:36;;;;;;;5.07;3.50;;;6.30;99.90;;;;;;4985459;28;20222;-85
2021/10/09 08:03:08;;;;;;;4.50;3.30;;;6.20;99.90;;;;;;4998665;28;20213;-85
2021/10/09 08:05:40;;;;;;;4.50;3.23;;;6.20;99.90;;;;;;5017949;28;20220;-86
2021/10/09 08:08:11;;;;;;;5.53;3.70;;;6.10;99.90;;;;;;5019408;28;20546;-86
2021/10/09 08:10:45;;;;;;;6.10;3.70;;;6.10;99.90;;;;;;5008708;28;20568;-85
2021/10/09 08:13:17;;;;;;;5.17;4.07;;;6.10;99.90;;;;;;5004149;28;20289;-85
2021/10/09 08:15:48;;;;;;;4.00;3.37;;;6.10;99.90;;;;;;5014420;28;20206;-84
2021/10/09 08:18:20;;;;;;;5.43;3.47;;;6.10;99.90;;;;;;5027064;28;20244;-84
2021/10/09 08:20:58;;;;;;;5.43;4.00;;;6.00;99.90;;;;;;5039485;28;20190;-85
2021/10/09 08:23:32;;;;;;;6.30;4.53;;;6.00;99.90;;;;;;5036865;28;20196;-84
2021/10/09 08:40:09;;;;;;;6.37;3.50;;;5.90;99.90;;;;;;5016947;28;20221;-86
2021/10/09 08:42:42;;;;;;;8.43;3.70;;;5.90;99.90;;;;;;5029617;28;20705;-86
2021/10/09 08:45:14;;;;;;;5.70;4.37;;;5.80;99.90;;;;;;5036790;28;20223;-86
2021/10/09 08:47:47;;;;;;;5.23;4.03;;;5.80;99.90;;;;;;5024249;28;20202;-87
2021/10/09 08:50:19;;;;;;;5.87;3.67;;;5.80;99.90;;;;;;5001614;28;20216;-85
2021/10/09 08:53:07;;;;;;;4.40;3.80;;;5.80;99.90;;;;;;5017296;28;20206;-86
2021/10/09 08:55:40;;;;;;;5.60;3.70;;;5.80;99.90;;;;;;5015710;28;20203;-86
2021/10/09 08:58:31;;;;;;;5.37;3.87;;;5.70;99.90;;;;;;5016180;28;20234;-86
2021/10/09 09:01:09;;;;;;;5.30;4.07;;;5.70;99.90;;;;;;5002660;28;20249;-85
2021/10/09 09:07:05;;;;;;;4.60;3.53;;;5.70;99.90;;;;;;4972343;28;20242;-85
2021/10/09 09:32:49;;;;;;;5.77;3.43;;;5.60;99.90;;;;;;4961428;29;20215;-86
2021/10/09 09:35:27;;;;;;;4.90;2.80;;;5.60;99.90;;;;;;4958746;28;20247;-85
2021/10/09 09:40:47;;;;;;;2.97;2.57;;;5.60;99.90;;;;;;4960695;29;20204;-86
2021/10/09 09:43:18;;;;;;;3.30;2.90;;;5.60;99.90;;;;;;4960944;28;20220;-86
2021/10/09 09:45:49;;;;;;;4.80;2.73;;;5.60;99.90;;;;;;4959729;29;20207;-85
2021/10/09 09:48:26;;;;;;;4.13;2.67;;;5.50;99.90;;;;;;4959939;28;20212;-85
2021/10/09 09:50:59;;;;;;;5.07;3.13;;;5.50;99.90;;;;;;4960289;29;20265;-86
2021/10/09 09:53:30;;;;;;;3.37;2.30;;;5.50;99.90;;;;;;4973757;28;20215;-85
2021/10/09 09:56:02;;;;;;;4.13;2.80;;;5.40;99.90;;;;;;4979216;28;20222;-84
2021/10/09 09:58:38;;;;;;;4.37;2.60;;;5.40;99.90;;;;;;4979366;28;20696;-84
2021/10/09 10:01:10;;;;;;;4.73;2.77;;;5.30;99.90;;;;;;4974749;28;20211;-84
2021/10/09 10:03:48;;;;;;;4.50;2.63;;;5.30;99.90;;;;;;4959865;28;20259;-85
2021/10/09 10:06:19;;;;;;;3.80;2.50;;;5.20;99.90;;;;;;4959140;29;20215;-84
2021/10/09 10:08:51;;;;;;;2.23;2.03;;;5.20;99.90;;;;;;4960092;29;20239;-85
2021/10/09 10:11:23;;;;;;;3.07;2.40;;;5.30;99.90;;;;;;4960003;28;20252;-85
2021/10/09 10:13:56;;;;;;;5.43;2.93;;;5.30;99.90;;;;;;4959426;29;20223;-84
2021/10/09 10:16:28;;;;;;;2.93;2.50;;;5.40;99.90;;;;;;4959243;29;20211;-85
2021/10/09 10:19:01;;;;;;;4.20;2.50;;;5.40;99.90;;;;;;4943317;29;20239;-86
2021/10/09 10:21:50;;;;;;;4.70;2.37;;;5.40;99.90;;;;;;4960271;29;20645;-85
2021/10/09 10:24:54;;;;;;;4.87;2.60;;;5.40;99.90;;;;;;4960382;29;20204;-86
2021/10/09 10:27:36;;;;;;;3.33;2.83;;;5.40;99.90;;;;;;4937915;29;20243;-85
2021/10/09 10:30:24;;;;;;;6.53;3.33;;;5.50;99.90;;;;;;4937679;29;20231;-85
2021/10/09 10:33:29;;;;;;;5.17;2.90;;;5.50;99.90;;;;;;4951447;29;20212;-85
2021/10/09 10:36:02;;;;;;;3.37;2.23;;;5.50;99.90;;;;;;4944443;29;20291;-85
2021/10/09 10:38:47;;;;;;;3.13;2.10;;;5.50;99.90;;;;;;4954037;29;20250;-85
2021/10/09 10:41:22;;;;;;;2.43;2.23;;;5.50;99.90;;;;;;4961375;29;20215;-85
2021/10/09 10:43:55;;;;;;;3.40;2.23;;;5.50;99.90;;;;;;4958098;29;20234;-85
2021/10/09 10:46:43;;;;;;;3.20;1.90;;;5.50;99.90;;;;;;4970824;28;20215;-85
2021/10/09 10:49:19;;;;;;;4.30;2.33;;;5.50;99.90;;;;;;4977873;28;20675;-85
2021/10/09 10:55:05;;;;;;;5.23;2.00;;;5.50;99.90;;;;;;4967706;28;20656;-85
2021/10/09 10:57:37;;;;;;;2.20;1.90;;;5.60;99.90;;;;;;4965510;28;20291;-85
2021/10/09 11:00:16;;;;;;;3.33;2.07;;;5.70;99.90;;;;;;4976532;28;20261;-85
2021/10/09 11:02:49;;;;;;;3.23;1.93;;;5.70;99.90;;;;;;4968773;28;20227;-85
2021/10/09 11:05:21;;;;;;;2.27;1.93;;;5.80;99.90;;;;;;4976785;28;20306;-85
2021/10/09 11:08:15;;;;;;;2.97;2.10;;;5.90;99.90;;;;;;5000188;23;20240;-86
2021/10/09 11:10:51;;;;;;;3.37;2.07;;;6.00;99.90;;;;;;4996694;28;20247;-86
2021/10/09 11:13:22;;;;;;;2.80;2.13;;;6.20;99.90;;;;;;4996772;28;20650;-86
2021/10/09 11:15:54;;;;;;;4.30;1.90;;;6.30;99.90;;;;;;4996057;28;20217;-86
2021/10/09 11:18:25;;;;;;;3.30;2.10;;;6.40;99.90;;;;;;4996583;28;20549;-87
2021/10/09 11:21:01;;;;;;;2.47;2.13;;;6.40;99.90;;;;;;4996524;28;20210;-85
2021/10/09 11:23:50;;;;;;;3.77;2.10;;;6.50;99.90;;;;;;5020648;23;20243;-84
2021/10/09 11:26:22;;;;;;;3.87;1.90;;;6.60;99.90;;;;;;4998758;28;20244;-85
2021/10/09 11:29:02;;;;;;;3.60;1.90;;;6.60;99.90;;;;;;4998761;28;20226;-84
2021/10/09 11:31:34;;;;;;;1.80;1.70;;;6.70;99.90;;;;;;4996811;28;20214;-85
2021/10/09 11:34:06;;;;;;;4.77;1.80;;;6.80;99.90;;;;;;4998131;28;20243;-85
2021/10/09 11:36:40;;;;;;;6.80;1.90;;;6.80;99.90;;;;;;4996558;28;20239;-85
2021/10/09 11:39:15;;;;;;;4.93;2.00;;;6.80;99.90;;;;;;5010260;28;20252;-84
2021/10/09 11:42:03;;;;;;;3.80;1.80;;;6.90;99.90;;;;;;5017694;28;20240;-85
2021/10/09 11:44:37;;;;;;;5.30;2.33;;;6.90;99.90;;;;;;5016729;28;20735;-86
2021/10/09 11:47:35;;;;;;;2.07;1.87;;;6.90;99.90;;;;;;5018481;28;20210;-86
2021/10/09 11:56:01;;;;;;;4.33;2.00;;;7.00;99.90;;;;;;5026954;28;20237;-84
2021/10/09 11:58:32;;;;;;;2.70;2.20;;;7.00;99.90;;;;;;5015903;28;20221;-86
2021/10/09 12:01:04;;;;;;;4.30;2.33;;;7.00;99.90;;;;;;4998723;28;20225;-85
2021/10/09 12:03:37;;;;;;;4.80;2.03;;;7.10;99.90;;;;;;5015822;28;20599;-85
2021/10/09 12:06:11;;;;;;;2.23;2.00;;;7.10;99.90;;;;;;5000098;28;20202;-85
2021/10/09 12:08:52;;;;;;;2.90;2.23;;;7.10;99.90;;;;;;4996459;28;20280;-85
2021/10/09 12:11:29;;;;;;;2.97;2.13;;;7.20;99.90;;;;;;4997625;28;20214;-85
2021/10/09 12:14:02;;;;;;;3.53;1.90;;;7.20;99.90;;;;;;5005275;28;20209;-84
2021/10/09 12:16:35;;;;;;;3.70;2.33;;;7.20;99.90;;;;;;5017813;28;20237;-84
2021/10/09 12:19:07;;;;;;;2.57;1.80;;;7.20;99.90;;;;;;5020014;28;20793;-84
2021/10/09 12:21:59;;;;;;;4.67;1.93;;;7.10;99.90;;;;;;5019628;28;20284;-85
2021/10/09 12:24:32;;;;;;;3.20;2.30;;;7.20;99.90;;;;;;4993903;28;20238;-85
2021/10/09 12:27:12;;;;;;;2.63;2.00;;;7.20;99.90;;;;;;4979287;28;20207;-84
2021/10/09 12:30:00;;;;;;;4.20;2.37;;;7.20;99.90;;;;;;4980562;28;20207;-84
2021/10/09 12:32:32;;;;;;;4.80;2.13;;;7.20;99.90;;;;;;5004016;28;20264;-84
2021/10/09 12:35:10;;;;;;;3.63;2.13;;;7.30;99.90;;;;;;5018838;28;20724;-85
2021/10/09 12:37:55;;;;;;;3.77;1.90;;;7.30;99.90;;;;;;5012394;28;20566;-86
2021/10/09 12:40:27;;;;;;;3.83;1.83;;;7.40;99.90;;;;;;5004411;28;20244;-86
2021/10/09 12:43:01;;;;;;;3.33;2.27;;;7.40;99.90;;;;;;5018580;28;20202;-86
2021/10/09 12:45:33;;;;;;;3.33;1.90;;;7.50;99.90;;;;;;4982139;28;20202;-85
2021/10/09 12:48:05;;;;;;;2.13;1.93;;;7.50;99.90;;;;;;4979943;28;20690;-85
2021/10/09 12:50:40;;;;;;;3.43;2.13;;;7.50;99.90;;;;;;5011955;28;20249;-85
2021/10/09 12:53:13;;;;;;;2.67;2.00;;;7.50;99.90;;;;;;5018545;28;20232;-85
2021/10/09 12:55:45;;;;;;;4.53;2.20;;;7.50;99.90;;;;;;5016885;28;20239;-85
2021/10/09 12:58:18;;;;;;;3.83;2.57;;;7.50;99.90;;;;;;5009882;28;20211;-85
2021/10/09 13:00:50;;;;;;;4.23;2.20;;;7.60;99.90;;;;;;5004307;28;20232;-86
2021/10/09 13:03:21;;;;;;;4.73;2.10;;;7.60;99.90;;;;;;4989877;28;20215;-86
2021/10/09 13:05:53;;;;;;;2.87;2.30;;;7.60;99.90;;;;;;4980281;28;20218;-84
2021/10/09 13:08:24;;;;;;;2.60;2.40;;;7.70;99.90;;;;;;4996927;28;20264;-86
2021/10/09 13:10:59;;;;;;;4.37;2.70;;;7.70;99.90;;;;;;4998824;28;20209;-85
2021/10/09 13:13:32;;;;;;;4.20;2.53;;;7.80;99.90;;;;;;4997974;28;20906;-86
2021/10/09 13:16:03;;;;;;;7.77;2.93;;;7.80;99.90;;;;;;4988205;28;20225;-86
2021/10/09 13:18:34;;;;;;;4.03;2.50;;;7.80;99.90;;;;;;4998177;28;20243;-85
2021/10/09 13:21:16;;;;;;;5.13;2.57;;;7.90;99.90;;;;;;4989377;28;20262;-85
2021/10/09 13:23:47;;;;;;;3.93;2.60;;;7.90;99.90;;;;;;4990794;28;20226;-86
2021/10/09 13:26:19;;;;;;;3.60;2.17;;;7.80;99.90;;;;;;4997703;28;20292;-86
2021/10/09 13:28:52;;;;;;;4.37;2.10;;;7.90;99.90;;;;;;4998328;28;20214;-86
2021/10/09 13:31:23;;;;;;;3.30;2.30;;;7.80;99.90;;;;;;4998042;28;20213;-86
2021/10/09 13:33:56;;;;;;;2.23;1.97;;;7.90;99.90;;;;;;5003699;28;20282;-85
2021/10/09 13:36:28;;;;;;;3.73;2.20;;;7.90;99.90;;;;;;4977635;28;20213;-86
2021/10/09 13:39:00;;;;;;;2.60;2.37;;;7.90;99.90;;;;;;4994738;28;20239;-86
2021/10/09 13:41:31;;;;;;;3.43;2.40;;;7.90;99.90;;;;;;5002113;28;20261;-86
2021/10/09 13:44:04;;;;;;;4.50;2.93;;;8.00;99.90;;;;;;4998713;28;20233;-86
2021/10/09 13:46:37;;;;;;;3.77;2.30;;;8.00;99.90;;;;;;4997083;28;20213;-86
2021/10/09 13:49:09;;;;;;;4.43;2.20;;;8.00;99.90;;;;;;5006891;28;20231;-86
2021/10/09 13:51:41;;;;;;;3.47;1.97;;;8.00;99.90;;;;;;5016501;28;20194;-85
2021/10/09 13:54:11;;;;;;;3.87;1.93;;;8.00;99.90;;;;;;5017276;28;20197;-86
2021/10/09 13:56:42;;;;;;;4.50;1.90;;;8.10;99.90;;;;;;5012307;28;20198;-86
2021/10/09 13:59:16;;;;;;;4.30;2.10;;;8.10;99.90;;;;;;5000892;28;20210;-86
2021/10/09 14:01:47;;;;;;;4.33;2.23;;;8.10;99.90;;;;;;5018411;28;20273;-85
2021/10/09 14:04:19;;;;;;;2.43;1.93;;;8.10;99.90;;;;;;4985941;28;20235;-86
2021/10/09 14:06:50;;;;;;;4.43;1.70;;;8.10;99.90;;;;;;4977430;28;20241;-87
2021/10/09 14:09:21;;;;;;;3.87;2.33;;;8.00;99.90;;;;;;4979123;28;20203;-87
2021/10/09 14:11:53;;;;;;;3.87;1.97;;;8.00;99.90;;;;;;4978558;28;20240;-86
2021/10/09 14:14:27;;;;;;;4.60;1.93;;;8.20;99.90;;;;;;4978441;28;20238;-87
2021/10/09 14:16:58;;;;;;;2.67;1.83;;;8.20;99.90;;;;;;4977313;28;20222;-87
2021/10/09 14:19:29;;;;;;;3.23;1.80;;;8.20;99.90;;;;;;4996329;28;20568;-86
2021/10/09 14:22:06;;;;;;;4.53;1.93;;;8.20;99.90;;;;;;4996990;28;20229;-87
2021/10/09 14:24:37;;;;;;;4.77;2.13;;;8.30;99.90;;;;;;4996876;28;20218;-87
2021/10/09 14:27:08;;;;;;;2.07;1.60;;;8.30;99.90;;;;;;5005806;28;20252;-87
2021/10/09 14:29:42;;;;;;;3.10;1.97;;;8.40;99.90;;;;;;5016834;28;20210;-86
2021/10/09 14:32:13;;;;;;;3.33;2.23;;;8.40;99.90;;;;;;5016835;28;20229;-87
2021/10/09 14:34:44;;;;;;;2.63;1.70;;;8.40;99.90;;;;;;5016060;28;20692;-87
2021/10/09 14:37:15;;;;;;;2.13;1.70;;;8.50;99.90;;;;;;5016282;28;20213;-85
2021/10/09 14:39:47;;;;;;;2.27;1.67;;;8.50;99.90;;;;;;5015226;28;20209;-86
2021/10/09 14:42:19;;;;;;;3.10;1.97;;;8.50;99.90;;;;;;5007142;28;20233;-85
2021/10/09 14:44:53;;;;;;;5.93;1.60;;;8.60;99.90;;;;;;4987287;28;20213;-85
2021/10/09 15:18:33;;;;;;;2.77;1.70;;;9.40;99.90;;;;;;4990120;28;20254;-85
2021/10/09 15:21:05;;;;;;;2.47;1.80;;;9.50;99.90;;;;;;5018206;28;20230;-86
2021/10/09 15:23:36;;;;;;;2.77;1.80;;;9.60;99.90;;;;;;5009421;28;20668;-86
2021/10/09 15:26:08;;;;;;;3.17;2.10;;;9.70;99.90;;;;;;5009350;28;20219;-86
2021/10/09 15:28:39;;;;;;;6.53;2.43;;;9.70;99.90;;;;;;5001276;28;20214;-85
2021/10/09 15:31:14;;;;;;;2.30;1.60;;;9.80;99.90;;;;;;4996586;28;20278;-85
2021/10/09 15:33:48;;;;;;;3.37;1.90;;;9.90;99.90;;;;;;5008148;28;20261;-86
2021/10/09 15:36:19;;;;;;;2.20;1.80;;;9.90;99.90;;;;;;4997498;28;20218;-84
2021/10/09 15:38:52;;;;;;;3.67;2.17;;;10.00;99.90;;;;;;5009053;28;20237;-85
2021/10/09 15:41:25;;;;;;;2.53;2.00;;;10.00;99.90;;;;;;5005098;28;20206;-84
2021/10/09 15:43:56;;;;;;;3.10;2.10;;;10.10;99.90;;;;;;5004951;28;20218;-85
2021/10/09 15:46:28;;;;;;;4.47;2.30;;;10.10;99.90;;;;;;5017877;28;20198;-85
2021/10/09 15:49:02;;;;;;;4.23;1.90;;;10.10;99.90;;;;;;5028457;28;20218;-85
2021/10/09 15:51:34;;;;;;;4.90;2.10;;;10.10;99.90;;;;;;5012460;28;20206;-85
2021/10/09 15:54:06;;;;;;;4.70;2.00;;;10.10;99.90;;;;;;5013199;28;20211;-85
2021/10/09 15:56:37;;;;;;;3.63;1.80;;;10.20;99.90;;;;;;5012264;28;20202;-85
2021/10/09 15:59:09;;;;;;;4.67;2.10;;;10.10;99.90;;;;;;5006125;28;20275;-84
2021/10/09 16:01:41;;;;;;;4.63;2.00;;;10.10;99.90;;;;;;5010436;28;20238;-85
2021/10/09 16:04:21;;;;;;;4.37;1.73;;;10.10;99.90;;;;;;5009155;28;20234;-86
2021/10/09 16:06:55;;;;;;;4.43;1.70;;;10.10;99.90;;;;;;5004691;28;20210;-86
2021/10/09 16:09:26;;;;;;;2.67;2.00;;;10.10;99.90;;;;;;4999023;28;20226;-86
2021/10/09 16:11:58;;;;;;;3.10;2.43;;;10.10;99.90;;;;;;4992460;28;20211;-85
2021/10/09 16:14:30;;;;;;;3.63;2.10;;;10.20;99.90;;;;;;5013223;28;20202;-86
2021/10/09 16:17:14;;;;;;;3.10;2.20;;;10.20;99.90;;;;;;5018531;28;20214;-86